Time;durP1;ratioP1;P1;durP2;ratioP2;P2;SDS_P1;SDS_P2;PMS_P1;PMS_P2;Temp;Humidity;BMP_temperature;BMP_pressure;BME280_temperature;BME280_humidity;BME280_pressure;Samples;Min_cycle;Max_cycle;Signal;HPM_P1;HPM_P2
2022/01/23 00:00:40;;;;;;;;;;;;;;;4.55;100.00;101679.13;6217840;23;19911;-79
2022/01/23 00:03:10;;;;;;;;;;;;;;;4.64;100.00;101713.47;6218855;23;19931;-79
2022/01/23 00:05:39;;;;;;;;;;;;;;;4.69;100.00;101732.34;6242608;23;20214;-78
2022/01/23 00:08:05;;;;;;;;;;;;;;;4.65;100.00;101745.81;6240067;23;19919;-78
2022/01/23 00:10:31;;;;;;;;;;;;;;;4.76;100.00;101770.03;6238940;23;19912;-77
2022/01/23 00:13:09;;;;;;;;;;;;;;;4.78;100.00;101778.63;6239668;23;19957;-78
2022/01/23 00:18:20;;;;;;;;;;;;;;;4.73;100.00;101808.25;6237995;23;19918;-76
2022/01/23 00:20:49;;;;;;;;;;;;;;;4.80;100.00;101812.75;6211462;23;19912;-77
2022/01/23 00:31:49;;;;;;;;;;;;;;;4.60;100.00;101789.03;6174953;23;20039;-77
2022/01/23 00:34:15;;;;;;;;;;;;;;;4.80;100.00;101797.44;6152951;23;20658;-77
2022/01/23 00:36:40;;;;;;;;;;;;;;;4.83;100.00;101794.97;6151357;23;19912;-77
2022/01/23 00:39:06;;;;;;;;;;;;;;;4.86;100.00;101777.25;6177061;23;19990;-79
2022/01/23 00:41:31;;;;;;;;;;;;;;;4.77;100.00;101752.25;6177587;23;19912;-77
2022/01/23 00:43:56;;;;;;;;;;;;;;;4.78;100.00;101722.47;6152519;23;19943;-76
2022/01/23 00:46:23;;;;;;;;;;;;;;;4.73;100.00;101703.56;6177161;23;20309;-77
2022/01/23 00:51:22;;;;;;;;;;;;;;;4.47;100.00;101643.94;6178156;23;19923;-77
2022/01/23 00:53:47;;;;;;;;;;;;;;;4.48;100.00;101626.13;6177853;23;19912;-76
2022/01/23 00:56:13;;;;;;;;;;;;;;;4.51;100.00;101628.78;6152972;23;20128;-77
2022/01/23 00:58:38;;;;;;;;;;;;;;;4.61;100.00;101623.22;6151578;23;19956;-78
2022/01/23 01:01:03;;;;;;;;;;;;;;;4.60;100.00;101611.25;6238984;23;19911;-77
2022/01/23 01:03:29;;;;;;;;;;;;;;;4.50;100.00;101598.13;6241607;22;20263;-80
2022/01/23 01:05:54;;;;;;;;;;;;;;;4.48;100.00;101585.31;6214079;23;19918;-78
2022/01/23 01:08:19;;;;;;;;;;;;;;;4.32;100.00;101568.59;6236371;23;20289;-78
2022/01/23 01:13:41;;;;;;;;;;;;;;;4.44;100.00;101575.81;6238430;23;20290;-79
2022/01/23 01:16:41;;;;;;;;;;;;;;;4.40;100.00;101572.31;6238508;23;20221;-79
2022/01/23 01:30:31;;;;;;;;;;;;;;;4.72;100.00;101557.22;6236457;23;20006;-79
2022/01/23 01:33:14;;;;;;;;;;;;;;;4.50;100.00;101550.50;6237898;23;19911;-78
2022/01/23 01:35:47;;;;;;;;;;;;;;;4.65;100.00;101550.13;6231329;22;20002;-78
2022/01/23 01:38:12;;;;;;;;;;;;;;;4.73;100.00;101541.06;6206965;23;19922;-79
2022/01/23 01:40:38;;;;;;;;;;;;;;;4.57;100.00;101531.19;6211835;23;20807;-79
2022/01/23 01:43:04;;;;;;;;;;;;;;;4.59;100.00;101527.84;6212361;23;19919;-79
2022/01/23 01:45:32;;;;;;;;;;;;;;;4.66;100.00;101533.16;6208756;23;20452;-80
2022/01/23 01:48:00;;;;;;;;;;;;;;;4.51;100.00;101529.25;6212013;23;19990;-78
2022/01/23 01:50:25;;;;;;;;;;;;;;;4.63;100.00;101533.94;6237377;23;20194;-78
2022/01/23 01:52:51;;;;;;;;;;;;;;;4.67;100.00;101530.63;6237633;23;19991;-78
2022/01/23 01:55:23;;;;;;;;;;;;;;;4.57;100.00;101529.47;6211954;23;19911;-79
2022/01/23 01:57:55;;;;;;;;;;;;;;;4.64;100.00;101522.03;6239758;23;19992;-79
2022/01/23 02:10:52;;;;;;;;;;;;;;;4.97;100.00;101494.13;6237278;23;19911;-78
2022/01/23 02:13:21;;;;;;;;;;;;;;;5.00;100.00;101474.69;6212600;23;19973;-79
2022/01/23 02:56:51;;;;;;;;;;;;;;;6.14;100.00;101283.47;6096502;23;20277;-80
2022/01/23 02:59:23;;;;;;;;;;;;;;;5.61;100.00;101217.44;6096391;23;19913;-80
2022/01/23 03:02:08;;;;;;;;;;;;;;;6.05;100.00;101180.97;6099437;23;19936;-80
2022/01/23 03:04:37;;;;;;;;;;;;;;;5.58;100.00;101110.00;6162948;23;19964;-80
2022/01/23 03:07:36;;;;;;;;;;;;;;;4.95;100.00;101065.16;6160502;23;19920;-80
2022/01/23 03:15:22;;;;;;;;;;;;;;;4.32;100.00;101049.94;6190488;23;19919;-79
2022/01/23 03:26:20;;;;;;;;;;;;;;;4.64;100.00;101108.59;6188674;23;20358;-79
2022/01/23 03:29:50;;;;;;;;;;;;;;;4.75;100.00;101125.06;6188714;23;19974;-79
2022/01/23 03:31:42;;;;;;;;;;;;;;;4.45;100.00;101140.38;6177001;23;20352;-78
2022/01/23 03:34:08;;;;;;;;;;;;;;;4.50;100.00;101154.16;6160415;23;19950;-78
2022/01/23 03:36:33;;;;;;;;;;;;;;;4.51;100.00;101176.28;6238282;23;20358;-79
2022/01/23 03:38:59;;;;;;;;;;;;;;;4.27;100.00;101177.34;6243763;23;19915;-79
2022/01/23 03:41:25;;;;;;;;;;;;;;;4.28;100.00;101188.41;6243353;23;19912;-81
2022/01/23 03:43:50;;;;;;;;;;;;;;;4.49;100.00;101224.72;6245551;23;19959;-80
2022/01/23 03:51:43;;;;;;;;;;;;;;;4.49;100.00;101292.75;6234446;23;19922;-79
2022/01/23 03:54:08;;;;;;;;;;;;;;;4.38;100.00;101302.66;6209743;23;20311;-78
2022/01/23 03:56:34;;;;;;;;;;;;;;;4.22;100.00;101323.38;6236233;23;19907;-78
2022/01/23 03:58:59;;;;;;;;;;;;;;;4.38;100.00;101343.47;6237103;22;20295;-78
2022/01/23 04:01:25;;;;;;;;;;;;;;;4.32;100.00;101368.78;6236117;23;20383;-78
2022/01/23 04:03:52;;;;;;;;;;;;;;;4.50;100.00;101394.00;6234673;23;19918;-77
2022/01/23 04:06:18;;;;;;;;;;;;;;;4.27;100.00;101417.09;6235296;23;19927;-78
2022/01/23 04:08:44;;;;;;;;;;;;;;;4.36;100.00;101439.50;6233749;22;20822;-80
2022/01/23 04:11:09;;;;;;;;;;;;;;;4.46;100.00;101468.72;6235136;23;19966;-80
2022/01/23 04:13:47;;;;;;;;;;;;;;;4.47;100.00;101491.72;6235887;23;19993;-77
2022/01/23 04:32:38;;;;;;;;;;;;;;;4.54;100.00;101600.84;6236015;23;19918;-79
2022/01/23 04:45:48;;;;;;;;;;;;;;;4.38;100.00;101664.91;6238354;23;19970;-77
2022/01/23 05:04:28;;;;;;;;;;;;;;;4.36;100.00;101707.34;6235887;23;20458;-78
2022/01/23 05:07:04;;;;;;;;;;;;;;;4.52;100.00;101724.97;6236845;23;19959;-79
2022/01/23 05:09:30;;;;;;;;;;;;;;;4.53;100.00;101724.13;6235799;23;19911;-78
2022/01/23 05:11:56;;;;;;;;;;;;;;;4.58;100.00;101735.41;6236831;23;19931;-76
2022/01/23 05:14:29;;;;;;;;;;;;;;;4.38;100.00;101721.03;6236316;23;19915;-78
2022/01/23 05:16:54;;;;;;;;;;;;;;;4.59;100.00;101736.25;6237276;22;20168;-78
2022/01/23 05:19:20;;;;;;;;;;;;;;;4.56;100.00;101742.13;6236231;23;19942;-77
2022/01/23 05:24:22;;;;;;;;;;;;;;;4.58;100.00;101737.94;6234491;23;20248;-79
2022/01/23 05:26:48;;;;;;;;;;;;;;;4.55;100.00;101731.84;6210355;23;19908;-78
2022/01/23 05:29:14;;;;;;;;;;;;;;;4.66;100.00;101738.22;6235250;23;20018;-78
2022/01/23 05:31:39;;;;;;;;;;;;;;;4.66;100.00;101737.34;6235089;23;19952;-78
2022/01/23 05:34:05;;;;;;;;;;;;;;;4.65;100.00;101727.94;6236044;23;19923;-78
2022/01/23 05:36:30;;;;;;;;;;;;;;;4.40;100.00;101699.88;6236246;23;20418;-77
2022/01/23 05:38:56;;;;;;;;;;;;;;;4.60;100.00;101703.13;6238221;23;19911;-80
2022/01/23 05:41:21;;;;;;;;;;;;;;;4.50;100.00;101690.84;6242739;23;19912;-79
2022/01/23 05:43:46;;;;;;;;;;;;;;;4.56;100.00;101690.19;6243551;23;20332;-79
2022/01/23 05:46:12;;;;;;;;;;;;;;;4.69;100.00;101687.28;6243952;23;19991;-79
2022/01/23 05:48:37;;;;;;;;;;;;;;;4.37;100.00;101678.47;6243239;23;20345;-79
2022/01/23 05:51:02;;;;;;;;;;;;;;;4.43;100.00;101678.69;6244836;23;19915;-78
2022/01/23 05:53:28;;;;;;;;;;;;;;;4.17;100.00;101668.41;6243972;23;19942;-78
2022/01/23 05:55:53;;;;;;;;;;;;;;;4.42;100.00;101699.03;6243441;23;19911;-79
2022/01/23 05:58:19;;;;;;;;;;;;;;;4.41;100.00;101718.59;6243083;23;19912;-79
2022/01/23 06:00:44;;;;;;;;;;;;;;;4.23;100.00;101720.47;6243862;23;20197;-79
2022/01/23 06:03:10;;;;;;;;;;;;;;;4.29;100.00;101741.97;6243355;23;19927;-79
2022/01/23 06:05:37;;;;;;;;;;;;;;;4.14;100.00;101756.69;6243130;22;19917;-79
2022/01/23 06:08:05;;;;;;;;;;;;;;;4.20;100.00;101777.34;6241099;23;19919;-79
2022/01/23 06:10:46;;;;;;;;;;;;;;;4.32;100.00;101807.53;6218766;23;19938;-78
2022/01/23 06:13:11;;;;;;;;;;;;;;;4.33;100.00;101819.47;6244307;22;20332;-79
2022/01/23 06:15:38;;;;;;;;;;;;;;;4.25;100.00;101836.19;6236833;23;19912;-78
2022/01/23 06:18:03;;;;;;;;;;;;;;;4.29;100.00;101850.78;6237788;23;19960;-76
2022/01/23 06:20:29;;;;;;;;;;;;;;;4.31;100.00;101872.13;6240289;23;19918;-80
2022/01/23 06:22:54;;;;;;;;;;;;;;;4.44;100.00;101881.13;6245783;23;20377;-80
2022/01/23 06:25:20;;;;;;;;;;;;;;;4.33;100.00;101873.06;6242794;23;19912;-79
2022/01/23 06:27:46;;;;;;;;;;;;;;;4.45;100.00;101876.09;6218426;23;19922;-78
2022/01/23 06:30:11;;;;;;;;;;;;;;;4.35;100.00;101859.53;6244554;23;20015;-77
2022/01/23 06:32:37;;;;;;;;;;;;;;;4.47;100.00;101864.28;6218118;23;19922;-79
2022/01/23 06:35:03;;;;;;;;;;;;;;;4.37;100.00;101854.50;6241837;23;19919;-78
2022/01/23 06:37:28;;;;;;;;;;;;;;;4.43;100.00;101857.31;6243801;23;19986;-78
2022/01/23 06:39:54;;;;;;;;;;;;;;;4.50;100.00;101859.28;6243353;23;20316;-79
2022/01/23 06:42:19;;;;;;;;;;;;;;;4.29;100.00;101840.56;6242492;22;19946;-78
2022/01/23 06:44:45;;;;;;;;;;;;;;;4.45;100.00;101839.47;6242820;23;19935;-79
2022/01/23 06:47:10;;;;;;;;;;;;;;;4.63;100.00;101844.44;6239771;23;20034;-78
2022/01/23 06:49:36;;;;;;;;;;;;;;;4.46;100.00;101816.59;6248537;23;19957;-78
2022/01/23 06:52:01;;;;;;;;;;;;;;;4.41;100.00;101797.69;6250616;23;19938;-78
2022/01/23 06:54:27;;;;;;;;;;;;;;;4.44;100.00;101800.34;6222126;23;19969;-79
2022/01/23 06:56:53;;;;;;;;;;;;;;;4.45;100.00;101798.66;6223309;23;19917;-78
2022/01/23 06:59:18;;;;;;;;;;;;;;;4.57;100.00;101799.13;6247977;23;19959;-79
2022/01/23 07:01:44;;;;;;;;;;;;;;;4.46;100.00;101788.53;6249758;23;19915;-79
2022/01/23 07:04:09;;;;;;;;;;;;;;;4.44;100.00;101779.94;6215474;23;19966;-80
2022/01/23 07:06:35;;;;;;;;;;;;;;;4.53;100.00;101787.94;6213998;23;19922;-80
2022/01/23 07:09:00;;;;;;;;;;;;;;;4.59;100.00;101782.19;6239476;23;19911;-79
2022/01/23 07:11:25;;;;;;;;;;;;;;;4.59;100.00;101783.06;6239730;23;19922;-80
2022/01/23 07:13:51;;;;;;;;;;;;;;;4.48;100.00;101768.19;6239326;23;19912;-79
2022/01/23 07:16:16;;;;;;;;;;;;;;;4.38;100.00;101757.63;6214797;23;19991;-80
2022/01/23 07:18:41;;;;;;;;;;;;;;;4.52;100.00;101755.59;6238142;23;19916;-79
2022/01/23 07:21:07;;;;;;;;;;;;;;;4.46;100.00;101750.25;6215270;23;19912;-80
2022/01/23 07:23:32;;;;;;;;;;;;;;;4.19;100.00;101743.28;6240324;23;20247;-79
2022/01/23 07:25:59;;;;;;;;;;;;;;;4.52;100.00;101770.03;6239003;23;19926;-79
2022/01/23 07:28:34;;;;;;;;;;;;;;;4.27;100.00;101758.03;6213881;23;20291;-80
2022/01/23 07:31:04;;;;;;;;;;;;;;;4.25;100.00;101759.66;6241135;22;20349;-79
2022/01/23 07:33:30;;;;;;;;;;;;;;;4.18;100.00;101779.81;6214648;23;19908;-80
2022/01/23 07:35:56;;;;;;;;;;;;;;;4.40;100.00;101811.25;6215165;23;20304;-80
2022/01/23 07:38:22;;;;;;;;;;;;;;;4.37;100.00;101822.19;6237103;23;19915;-80
2022/01/23 07:40:49;;;;;;;;;;;;;;;4.27;100.00;101834.56;6228444;22;19943;-79
2022/01/23 07:43:15;;;;;;;;;;;;;;;4.33;100.00;101860.28;6209660;23;19933;-80
2022/01/23 07:45:42;;;;;;;;;;;;;;;4.41;100.00;101871.69;6238252;22;20331;-80
2022/01/23 07:51:11;;;;;;;;;;;;;;;4.29;100.00;101883.94;6252134;23;19926;-80
2022/01/23 07:53:37;;;;;;;;;;;;;;;4.45;100.00;101901.63;6246400;23;19912;-80
2022/01/23 07:56:03;;;;;;;;;;;;;;;4.73;100.00;101933.31;6220737;23;19922;-80
2022/01/23 07:58:29;;;;;;;;;;;;;;;4.80;100.00;101922.53;6240492;23;19911;-81
2022/01/23 08:00:55;;;;;;;;;;;;;;;4.75;100.00;101904.50;6239808;22;19907;-81
2022/01/23 08:03:20;;;;;;;;;;;;;;;4.89;100.00;101893.94;6238655;23;20773;-81
2022/01/23 08:05:46;;;;;;;;;;;;;;;4.94;100.00;101874.53;6215440;23;19961;-81
2022/01/23 08:08:12;;;;;;;;;;;;;;;5.09;100.00;101851.25;6227711;23;19942;-80
2022/01/23 08:10:38;;;;;;;;;;;;;;;4.97;100.00;101811.69;6253391;23;19911;-80
2022/01/23 08:13:03;;;;;;;;;;;;;;;4.93;100.00;101784.31;6255954;23;19908;-81
2022/01/23 08:15:29;;;;;;;;;;;;;;;4.87;100.00;101750.88;6230302;23;20370;-82
2022/01/23 08:17:58;;;;;;;;;;;;;;;4.60;100.00;101717.56;6256214;23;19919;-80
2022/01/23 08:20:25;;;;;;;;;;;;;;;4.39;100.00;101694.69;6254831;23;19914;-81
2022/01/23 08:22:50;;;;;;;;;;;;;;;4.54;100.00;101700.38;6252596;22;19946;-81
2022/01/23 08:25:15;;;;;;;;;;;;;;;4.64;100.00;101714.31;6228307;23;19908;-80
2022/01/23 08:27:41;;;;;;;;;;;;;;;4.90;100.00;101722.88;6255417;23;19990;-80
2022/01/23 08:30:06;;;;;;;;;;;;;;;4.76;100.00;101714.75;6252819;23;19916;-80
2022/01/23 08:32:32;;;;;;;;;;;;;;;5.02;100.00;101713.13;6227201;23;19912;-80
2022/01/23 08:34:58;;;;;;;;;;;;;;;4.97;100.00;101694.22;6246593;23;19916;-81
2022/01/23 08:37:26;;;;;;;;;;;;;;;4.68;100.00;101661.72;6217745;23;19907;-83
2022/01/23 08:39:52;;;;;;;;;;;;;;;4.54;100.00;101651.88;6240760;23;19911;-81
2022/01/23 08:42:18;;;;;;;;;;;;;;;4.64;100.00;101657.31;6218620;23;19994;-84
2022/01/23 08:44:44;;;;;;;;;;;;;;;4.60;100.00;101657.19;6237077;23;20409;-82
2022/01/23 08:47:09;;;;;;;;;;;;;;;4.61;100.00;101658.06;6213587;23;19911;-83
2022/01/23 08:49:39;;;;;;;;;;;;;;;4.63;100.00;101670.88;6238005;23;19911;-82
2022/01/23 08:52:05;;;;;;;;;;;;;;;5.01;100.00;101685.81;6243081;22;20034;-82
2022/01/23 08:54:30;;;;;;;;;;;;;;;5.06;100.00;101688.53;6241416;23;19915;-82
2022/01/23 08:56:56;;;;;;;;;;;;;;;5.01;100.00;101677.28;6242286;23;19918;-81
2022/01/23 08:59:22;;;;;;;;;;;;;;;4.91;100.00;101668.47;6216038;23;20350;-81
2022/01/23 09:01:47;;;;;;;;;;;;;;;5.06;100.00;101668.09;6239501;22;19937;-81
2022/01/23 09:04:15;;;;;;;;;;;;;;;4.76;100.00;101652.63;6213932;23;20320;-81
2022/01/23 09:06:44;;;;;;;;;;;;;;;4.70;100.00;101637.97;6240295;22;19931;-82
2022/01/23 09:09:15;;;;;;;;;;;;;;;4.75;100.00;101633.03;6240175;23;19926;-81
2022/01/23 09:11:53;;;;;;;;;;;;;;;4.65;100.00;101629.25;6237714;23;19965;-81
2022/01/23 09:14:20;;;;;;;;;;;;;;;4.50;100.00;101632.16;6239834;22;20311;-81
2022/01/23 09:16:46;;;;;;;;;;;;;;;4.70;100.00;101652.41;6239041;22;20298;-81
2022/01/23 09:19:12;;;;;;;;;;;;;;;4.65;100.00;101656.47;6239726;23;19915;-82
2022/01/23 09:21:38;;;;;;;;;;;;;;;4.63;100.00;101670.88;6215304;23;19921;-81
2022/01/23 09:24:04;;;;;;;;;;;;;;;4.73;100.00;101686.56;6239894;23;19923;-81
2022/01/23 09:26:30;;;;;;;;;;;;;;;4.63;100.00;101686.19;6240553;23;19908;-81
2022/01/23 09:28:58;;;;;;;;;;;;;;;4.64;100.00;101703.25;6239468;23;19911;-81
2022/01/23 09:31:35;;;;;;;;;;;;;;;4.63;100.00;101714.25;6239463;23;19939;-81
2022/01/23 09:34:00;;;;;;;;;;;;;;;4.85;100.00;101739.72;6240626;23;19914;-81
2022/01/23 09:36:26;;;;;;;;;;;;;;;4.76;100.00;101754.72;6242066;22;19935;-82
2022/01/23 09:38:51;;;;;;;;;;;;;;;4.74;100.00;101756.34;6236725;23;20379;-82
2022/01/23 09:41:17;;;;;;;;;;;;;;;4.91;100.00;101755.28;6238748;23;20497;-82
2022/01/23 09:43:43;;;;;;;;;;;;;;;5.15;100.00;101749.28;6239364;23;19986;-82
2022/01/23 09:46:09;;;;;;;;;;;;;;;4.90;100.00;101728.00;6241220;23;19912;-82
2022/01/23 09:48:35;;;;;;;;;;;;;;;4.84;100.00;101703.97;6241325;23;19927;-82
2022/01/23 09:51:01;;;;;;;;;;;;;;;4.92;100.00;101699.97;6240494;23;19958;-82
2022/01/23 09:53:26;;;;;;;;;;;;;;;5.04;100.00;101695.31;6241769;23;19907;-81
2022/01/23 09:55:54;;;;;;;;;;;;;;;5.16;100.00;101693.16;6240259;23;20002;-81
2022/01/23 09:58:19;;;;;;;;;;;;;;;5.18;100.00;101680.44;6241763;22;19908;-81
2022/01/23 10:00:45;;;;;;;;;;;;;;;5.11;100.00;101665.69;6239616;23;19960;-81
2022/01/23 10:03:10;;;;;;;;;;;;;;;5.27;100.00;101667.97;6240385;23;19911;-81
2022/01/23 10:05:37;;;;;;;;;;;;;;;5.20;100.00;101643.00;6242063;23;20022;-81
2022/01/23 10:08:02;;;;;;;;;;;;;;;5.05;100.00;101609.31;6237470;23;20255;-82
2022/01/23 10:10:31;;;;;;;;;;;;;;;5.23;100.00;101603.09;6238641;23;19918;-80
2022/01/23 10:12:59;;;;;;;;;;;;;;;5.26;100.00;101584.44;6245628;23;19915;-80
2022/01/23 10:15:26;;;;;;;;;;;;;;;5.33;100.00;101563.38;6244768;22;19908;-80
2022/01/23 10:17:52;;;;;;;;;;;;;;;5.46;100.00;101544.19;6243225;22;19916;-80
2022/01/23 10:20:18;;;;;;;;;;;;;;;5.79;100.00;101536.63;6244584;22;19923;-80
2022/01/23 10:22:46;;;;;;;;;;;;;;;5.53;100.00;101497.53;6245478;23;19908;-80
2022/01/23 10:25:13;;;;;;;;;;;;;;;5.38;100.00;101471.53;6245963;23;19935;-81
2022/01/23 10:27:51;;;;;;;;;;;;;;;5.60;100.00;101457.66;6245937;22;20605;-79
2022/01/23 10:30:18;;;;;;;;;;;;;;;5.50;100.00;101430.16;6245728;23;20516;-79
2022/01/23 10:32:45;;;;;;;;;;;;;;;5.65;100.00;101425.44;6246264;22;19958;-79
2022/01/23 10:35:11;;;;;;;;;;;;;;;5.34;100.00;101399.03;6247700;22;19916;-80
2022/01/23 10:37:38;;;;;;;;;;;;;;;5.57;100.00;101397.13;6246577;23;20002;-79
2022/01/23 10:40:32;;;;;;;;;;;;;;;5.56;100.00;101384.28;6247730;23;19914;-80
2022/01/23 10:50:38;;;;;;;;;;;;;;;5.40;100.00;101327.63;6247997;23;19921;-81
2022/01/23 10:53:04;;;;;;;;;;;;;;;5.23;100.00;101331.44;6221983;23;19908;-80
2022/01/23 10:55:30;;;;;;;;;;;;;;;5.05;100.00;101323.28;6247306;23;19908;-80
2022/01/23 10:57:58;;;;;;;;;;;;;;;5.07;100.00;101332.72;6248295;23;19933;-80
2022/01/23 11:00:28;;;;;;;;;;;;;;;5.38;100.00;101343.75;6248486;22;19931;-81
2022/01/23 11:02:53;;;;;;;;;;;;;;;5.43;100.00;101343.06;6250030;22;19907;-80
2022/01/23 11:05:19;;;;;;;;;;;;;;;5.22;100.00;101337.38;6253290;22;19914;-80
2022/01/23 11:07:45;;;;;;;;;;;;;;;5.27;100.00;101335.84;6252633;23;19908;-80
2022/01/23 11:10:15;;;;;;;;;;;;;;;5.27;100.00;101340.94;6251770;23;19922;-80
2022/01/23 11:17:52;;;;;;;;;;;;;;;5.18;100.00;101333.03;6253887;23;19942;-79
2022/01/23 11:20:36;;;;;;;;;;;;;;;5.45;100.00;101345.66;6253208;23;19907;-80
2022/01/23 11:23:24;;;;;;;;;;;;;;;5.48;100.00;101342.34;6277761;22;19957;-81
2022/01/23 11:25:55;;;;;;;;;;;;;;;5.57;100.00;101340.03;6251226;22;19931;-80
2022/01/23 11:28:27;;;;;;;;;;;;;;;5.52;100.00;101331.34;6277893;22;19908;-80
2022/01/23 11:30:52;;;;;;;;;;;;;;;5.41;100.00;101323.41;6252667;23;19939;-79
2022/01/23 11:33:18;;;;;;;;;;;;;;;5.54;100.00;101314.38;6252469;23;19907;-79
2022/01/23 11:35:44;;;;;;;;;;;;;;;5.68;100.00;101307.94;6226600;23;19916;-80
2022/01/23 11:38:18;;;;;;;;;;;;;;;5.78;100.00;101304.75;6250573;22;19907;-79
2022/01/23 11:53:59;;;;;;;;;;;;;;;5.78;100.00;101263.00;6246407;23;20333;-80
2022/01/23 11:56:25;;;;;;;;;;;;;;;5.38;100.00;101241.56;6247798;23;19907;-81
2022/01/23 11:58:55;;;;;;;;;;;;;;;5.54;100.00;101247.91;6275682;22;19911;-80
2022/01/23 12:01:24;;;;;;;;;;;;;;;5.41;100.00;101237.41;6248426;23;20259;-80
2022/01/23 12:04:16;;;;;;;;;;;;;;;5.89;100.00;101247.91;6241575;23;19998;-80
2022/01/23 12:06:42;;;;;;;;;;;;;;;5.57;100.00;101251.41;6249397;23;19916;-80
2022/01/23 12:09:12;;;;;;;;;;;;;;;5.67;100.00;101244.84;6250257;23;19907;-80
2022/01/23 12:11:47;;;;;;;;;;;;;;;5.92;100.00;101240.31;6276203;22;20304;-80
2022/01/23 12:16:50;;;;;;;;;;;;;;;5.96;100.00;101234.47;6251594;22;19907;-79
2022/01/23 12:19:18;;;;;;;;;;;;;;;5.69;100.00;101221.88;6277903;22;20286;-80
2022/01/23 12:21:43;;;;;;;;;;;;;;;5.77;100.00;101228.91;6253584;22;20339;-80
2022/01/23 12:24:09;;;;;;;;;;;;;;;5.99;100.00;101224.28;6253286;23;19986;-79
2022/01/23 12:26:35;;;;;;;;;;;;;;;6.03;100.00;101215.88;6255262;23;19978;-80
2022/01/23 12:29:16;;;;;;;;;;;;;;;5.75;100.00;101205.00;6254160;23;19914;-79
2022/01/23 12:31:42;;;;;;;;;;;;;;;5.91;100.00;101197.63;6277641;22;19911;-79
2022/01/23 12:34:08;;;;;;;;;;;;;;;5.89;100.00;101195.06;6251777;23;20355;-80
2022/01/23 12:36:34;;;;;;;;;;;;;;;5.85;100.00;101196.69;6252031;22;19907;-80
2022/01/23 12:39:09;;;;;;;;;;;;;;;5.95;100.00;101189.25;6254898;22;19914;-80
2022/01/23 12:41:41;;;;;;;;;;;;;;;6.00;100.00;101187.69;6280138;22;19911;-79
2022/01/23 12:44:08;;;;;;;;;;;;;;;6.20;100.00;101181.28;6253962;22;19911;-80
2022/01/23 12:46:35;;;;;;;;;;;;;;;6.02;100.00;101162.97;6253889;23;19907;-79
2022/01/23 12:49:15;;;;;;;;;;;;;;;5.94;100.00;101159.38;6254865;23;19911;-81
2022/01/23 12:51:42;;;;;;;;;;;;;;;6.03;100.00;101152.78;6253756;23;19960;-80
2022/01/23 12:54:09;;;;;;;;;;;;;;;6.35;100.00;101141.47;6252563;23;19915;-80
2022/01/23 12:56:42;;;;;;;;;;;;;;;6.39;100.00;101145.84;6252942;23;19958;-80
2022/01/23 12:59:12;;;;;;;;;;;;;;;6.22;100.00;101137.81;6227693;23;20002;-79
2022/01/23 13:01:41;;;;;;;;;;;;;;;6.43;100.00;101133.13;6254907;22;19951;-80
2022/01/23 13:04:08;;;;;;;;;;;;;;;6.98;100.00;101127.25;6252821;23;19907;-80
2022/01/23 13:06:33;;;;;;;;;;;;;;;6.60;100.00;101110.41;6252213;23;19971;-80
2022/01/23 13:09:17;;;;;;;;;;;;;;;6.20;100.00;101101.97;6276287;22;19908;-79
2022/01/23 13:18:12;;;;;;;;;;;;;;;6.46;100.00;101079.44;6189616;23;19963;-79
2022/01/23 13:31:43;;;;;;;;;;;;;;;8.38;100.00;101061.63;6166913;23;20034;-78
2022/01/23 13:34:20;;;;;;;;;;;;;;;8.05;100.00;101048.41;6190398;23;19924;-80
2022/01/23 13:36:55;;;;;;;;;;;;;;;8.06;100.00;101029.63;6165849;23;19916;-78
2022/01/23 13:39:25;;;;;;;;;;;;;;;8.30;100.00;101017.06;6142426;23;19931;-78
2022/01/23 13:42:00;;;;;;;;;;;;;;;8.46;99.73;101004.38;6166007;23;19928;-79
2022/01/23 13:53:22;;;;;;;;;;;;;;;7.99;91.72;100963.69;6139981;23;19950;-80
2022/01/23 13:58:36;;;;;;;;;;;;;;;8.07;90.50;100959.50;6251296;23;19918;-80
2022/01/23 14:01:15;;;;;;;;;;;;;;;8.13;88.96;100957.84;6251921;23;20268;-80
2022/01/23 14:03:41;;;;;;;;;;;;;;;8.09;87.91;100955.22;6251932;23;19908;-79
2022/01/23 14:06:06;;;;;;;;;;;;;;;8.31;88.82;100946.03;6252927;23;20301;-79
2022/01/23 14:08:32;;;;;;;;;;;;;;;8.12;87.64;100939.88;6251463;23;19918;-79
2022/01/23 14:10:58;;;;;;;;;;;;;;;8.28;85.19;100941.75;6225913;23;19969;-79
2022/01/23 14:13:24;;;;;;;;;;;;;;;8.32;86.54;100940.88;6254193;22;19911;-80
2022/01/23 14:15:51;;;;;;;;;;;;;;;8.42;85.42;100934.19;6251536;23;19908;-79
2022/01/23 14:18:22;;;;;;;;;;;;;;;8.17;84.88;100938.22;6252158;23;20324;-79
2022/01/23 14:20:56;;;;;;;;;;;;;;;8.50;86.44;100936.78;6246692;22;19908;-79
2022/01/23 14:23:25;;;;;;;;;;;;;;;8.23;84.85;100938.25;6245578;22;19954;-80
2022/01/23 14:25:53;;;;;;;;;;;;;;;8.57;85.81;100938.56;6250902;23;19931;-79
2022/01/23 14:28:20;;;;;;;;;;;;;;;8.44;84.83;100934.16;6274462;22;19908;-79
2022/01/23 14:30:46;;;;;;;;;;;;;;;8.26;84.52;100945.13;6227265;23;19911;-80
2022/01/23 14:33:13;;;;;;;;;;;;;;;8.36;85.51;100934.94;6277864;22;19911;-80
2022/01/23 14:35:39;;;;;;;;;;;;;;;8.27;85.26;100951.97;6250122;23;19919;-79
2022/01/23 14:38:08;;;;;;;;;;;;;;;8.20;86.24;100942.50;6253879;23;19908;-80
2022/01/23 14:40:35;;;;;;;;;;;;;;;8.00;85.93;100943.16;6251254;23;19934;-79
2022/01/23 14:43:00;;;;;;;;;;;;;;;8.10;86.30;100946.72;6225070;23;20324;-80
2022/01/23 14:45:27;;;;;;;;;;;;;;;7.93;86.03;100947.38;6251563;22;19961;-80
2022/01/23 14:47:52;;;;;;;;;;;;;;;8.03;86.78;100950.91;6251888;23;19934;-80
2022/01/23 14:50:20;;;;;;;;;;;;;;;7.62;86.22;100951.34;6252540;22;19935;-79
2022/01/23 14:52:47;;;;;;;;;;;;;;;8.11;87.08;100956.97;6252187;23;19955;-79
2022/01/23 14:55:13;;;;;;;;;;;;;;;8.23;86.27;100969.03;6277868;22;19998;-80
2022/01/23 14:57:39;;;;;;;;;;;;;;;8.21;86.22;100970.78;6251039;23;20330;-79
2022/01/23 15:00:06;;;;;;;;;;;;;;;6.66;86.39;100950.88;6251515;23;19928;-80
2022/01/23 15:02:32;;;;;;;;;;;;;;;6.51;89.05;100961.75;6277624;22;19986;-79
2022/01/23 15:05:02;;;;;;;;;;;;;;;7.33;90.06;100981.75;6253253;23;20027;-80
2022/01/23 15:07:27;;;;;;;;;;;;;;;8.07;88.53;100998.84;6248089;22;19939;-79
2022/01/23 15:09:53;;;;;;;;;;;;;;;7.57;87.12;101003.41;6248193;23;19908;-79
2022/01/23 15:12:20;;;;;;;;;;;;;;;8.18;88.28;101004.09;6250058;23;19907;-79
2022/01/23 15:14:48;;;;;;;;;;;;;;;8.28;86.45;101013.63;6252285;22;19954;-79
2022/01/23 15:17:13;;;;;;;;;;;;;;;7.99;86.21;101015.88;6257631;23;19982;-80
2022/01/23 15:19:39;;;;;;;;;;;;;;;7.83;85.43;101021.69;6253257;23;19918;-79
2022/01/23 15:22:06;;;;;;;;;;;;;;;7.80;85.47;101017.38;6252087;23;19910;-81
2022/01/23 15:24:32;;;;;;;;;;;;;;;7.59;86.64;101009.41;6254327;23;19912;-80
2022/01/23 15:26:58;;;;;;;;;;;;;;;7.09;87.36;101008.75;6252464;23;20026;-80
2022/01/23 15:29:24;;;;;;;;;;;;;;;7.39;87.55;101022.84;6255193;23;19922;-80
2022/01/23 15:31:49;;;;;;;;;;;;;;;7.45;87.38;101022.91;6225681;22;19911;-80
2022/01/23 15:34:17;;;;;;;;;;;;;;;7.29;88.80;101026.09;6252118;23;20286;-80
2022/01/23 15:36:43;;;;;;;;;;;;;;;7.73;87.67;101041.19;6250655;23;20296;-79
2022/01/23 15:39:09;;;;;;;;;;;;;;;7.94;85.44;101043.19;6250450;22;19954;-79
2022/01/23 15:41:34;;;;;;;;;;;;;;;8.11;85.30;101045.94;6248619;22;19990;-78
2022/01/23 15:44:00;;;;;;;;;;;;;;;8.20;84.94;101043.47;6252014;23;19946;-79
2022/01/23 15:46:25;;;;;;;;;;;;;;;7.50;84.57;101033.22;6225972;23;19926;-79
2022/01/23 15:48:50;;;;;;;;;;;;;;;7.24;84.81;101027.75;6251907;23;19915;-80
2022/01/23 15:51:16;;;;;;;;;;;;;;;7.21;86.54;101033.69;6250603;23;19918;-79
2022/01/23 15:53:41;;;;;;;;;;;;;;;7.16;85.71;101039.56;6228228;23;19966;-79
2022/01/23 15:56:07;;;;;;;;;;;;;;;7.23;87.14;101041.38;6253157;23;19907;-80
2022/01/23 15:58:32;;;;;;;;;;;;;;;7.48;86.94;101058.84;6253060;23;19911;-79
2022/01/23 16:00:58;;;;;;;;;;;;;;;7.81;85.55;101064.41;6227241;23;19927;-80
2022/01/23 16:03:26;;;;;;;;;;;;;;;7.53;84.48;101064.91;6253902;23;19911;-79
2022/01/23 16:05:51;;;;;;;;;;;;;;;7.71;84.53;101068.56;6253737;23;19955;-79